createdAt,value
2022-12-20T00:00:12.795Z,56.83
2022-12-20T00:02:18.869Z,61.55
2022-12-20T00:03:23.702Z,65.10
2022-12-20T00:09:27.052Z,60.70
2022-12-20T00:11:53.987Z,53.72
2022-12-20T00:20:28.579Z,55.88
2022-12-20T00:26:56.608Z,57.78
2022-12-20T00:36:21.988Z,57.88
2022-12-20T00:39:24.964Z,55.72
2022-12-20T00:42:55.669Z,57.55
2022-12-20T00:45:52.728Z,55.47
2022-12-20T00:48:46.630Z,60.25
2022-12-20T00:51:35.394Z,58.70
2022-12-20T00:54:14.542Z,59.20
2022-12-20T00:57:00.989Z,58.65
2022-12-20T00:59:32.248Z,56.92
2022-12-20T01:02:42.893Z,55.58
2022-12-20T01:05:28.435Z,58.45
2022-12-20T01:14:23.849Z,88.70
2022-12-20T01:16:59.719Z,76.68
2022-12-20T01:19:52.591Z,69.82
2022-12-20T01:34:37.492Z,67.95
2022-12-20T01:37:10.817Z,74.18
2022-12-20T01:39:37.843Z,61.38
2022-12-20T01:42:11.650Z,58.92
2022-12-20T01:44:48.559Z,64.38
2022-12-20T01:47:22.557Z,62.67
2022-12-20T01:49:49.519Z,63.60
2022-12-20T01:52:27.603Z,64.07
2022-12-20T01:55:11.320Z,52.40
2022-12-20T01:58:09.370Z,57.40
2022-12-20T02:00:36.396Z,67.25
2022-12-20T02:03:15.654Z,70.55
2022-12-20T02:05:51.586Z,65.80
2022-12-20T02:08:26.583Z,57.63
2022-12-20T02:11:06.416Z,59.45
2022-12-20T02:14:34.615Z,54.65
2022-12-20T02:17:38.596Z,55.97
2022-12-20T02:20:44.053Z,55.90
2022-12-20T02:23:51.559Z,62.97
2022-12-20T02:26:43.202Z,57.20
2022-12-20T02:29:47.620Z,55.13
2022-12-20T02:32:35.609Z,50.00
2022-12-20T02:35:04.585Z,53.00
2022-12-20T02:37:37.606Z,51.95
2022-12-20T02:40:13.131Z,50.10
2022-12-20T02:43:08.649Z,52.53
2022-12-20T02:45:35.826Z,47.60
2022-12-20T02:48:18.656Z,54.35
2022-12-20T02:50:47.950Z,51.75
2022-12-20T02:53:21.605Z,47.92
2022-12-20T02:56:26.162Z,45.70
2022-12-20T02:59:30.637Z,48.42
2022-12-20T03:01:57.878Z,43.08
2022-12-20T03:04:36.630Z,44.47
2022-12-20T03:07:06.438Z,45.00
2022-12-20T03:09:42.608Z,44.78
2022-12-20T03:12:10.435Z,47.88
2022-12-20T03:14:44.671Z,48.85
2022-12-20T03:17:18.702Z,46.10
2022-12-20T03:19:45.669Z,44.83
2022-12-20T03:22:18.640Z,40.65
2022-12-20T03:24:45.514Z,46.15
2022-12-20T03:27:18.593Z,48.47
2022-12-20T03:29:45.470Z,43.60
2022-12-20T03:32:12.621Z,44.45
2022-12-20T03:34:45.640Z,44.67
2022-12-20T03:37:12.546Z,48.90
2022-12-20T03:39:45.596Z,42.78
2022-12-20T03:42:18.651Z,43.25
2022-12-20T03:44:45.603Z,43.97
2022-12-20T03:47:18.626Z,45.42
2022-12-20T03:49:45.526Z,43.53
2022-12-20T03:52:19.623Z,42.55
2022-12-20T03:54:46.582Z,42.50
2022-12-20T03:57:19.653Z,42.17
2022-12-20T03:59:46.589Z,42.45
2022-12-20T04:02:19.794Z,43.95
2022-12-20T04:04:47.293Z,44.92
2022-12-20T04:07:20.634Z,48.78
2022-12-20T04:09:53.657Z,55.47
2022-12-20T04:12:20.558Z,50.45
2022-12-20T04:14:53.617Z,51.50
2022-12-20T04:20:07.675Z,57.22
2022-12-20T04:22:40.675Z,58.47
2022-12-20T04:25:08.051Z,60.03
2022-12-20T04:27:41.664Z,54.42
2022-12-20T04:30:09.667Z,57.95
2022-12-20T04:32:42.618Z,57.40
2022-12-20T04:35:16.674Z,51.65
2022-12-20T04:37:43.538Z,49.38
2022-12-20T04:40:17.617Z,48.80
2022-12-20T04:42:44.457Z,39.72
2022-12-20T04:45:11.627Z,43.78
2022-12-20T04:50:33.297Z,38.40
2022-12-20T04:53:06.726Z,36.35
2022-12-20T04:55:40.410Z,33.53
2022-12-20T04:58:14.669Z,34.63
2022-12-20T05:00:41.545Z,34.70
2022-12-20T05:03:14.810Z,37.38
2022-12-20T05:05:41.808Z,35.90
2022-12-20T05:08:15.654Z,37.85
2022-12-20T05:10:42.745Z,36.15
2022-12-20T05:13:16.685Z,39.63
2022-12-20T05:15:50.704Z,36.97
2022-12-20T05:18:23.654Z,36.22
2022-12-20T05:20:50.699Z,37.78
2022-12-20T05:23:23.674Z,41.70
2022-12-20T05:25:57.675Z,39.03
2022-12-20T05:28:24.544Z,40.75
2022-12-20T05:30:57.716Z,42.90
2022-12-20T05:33:34.161Z,35.70
2022-12-20T05:36:01.354Z,34.47
2022-12-20T05:38:28.237Z,31.40
2022-12-20T05:41:01.661Z,33.40
2022-12-20T05:43:34.646Z,35.05
2022-12-20T05:46:01.541Z,32.10
2022-12-20T05:48:34.641Z,36.40
2022-12-20T05:51:01.586Z,42.42
2022-12-20T05:53:34.708Z,39.10
2022-12-20T05:56:08.677Z,34.97
2022-12-20T05:58:35.637Z,34.15
2022-12-20T06:01:13.695Z,39.55
2022-12-20T06:03:41.077Z,37.92
2022-12-20T06:06:15.532Z,34.28
2022-12-20T06:08:43.404Z,34.67
2022-12-20T06:11:10.303Z,33.72
2022-12-20T06:13:43.699Z,29.48
2022-12-20T06:16:10.630Z,32.30
2022-12-20T06:18:43.691Z,32.50
2022-12-20T06:21:10.604Z,30.55
2022-12-20T06:23:43.701Z,31.77
2022-12-20T06:26:10.608Z,33.33
2022-12-20T06:28:37.475Z,36.72
2022-12-20T06:31:13.122Z,30.70
2022-12-20T06:33:40.092Z,47.92
2022-12-20T06:36:13.658Z,36.13
2022-12-20T06:38:40.572Z,33.13
2022-12-20T06:41:13.719Z,33.45
2022-12-20T06:43:40.637Z,40.05
2022-12-20T06:46:07.537Z,48.28
2022-12-20T06:48:40.697Z,45.67
2022-12-20T06:51:07.580Z,46.45
2022-12-20T06:53:40.725Z,41.63
2022-12-20T06:56:07.898Z,44.05
2022-12-20T06:58:41.728Z,43.65
2022-12-20T07:01:15.768Z,44.55
2022-12-20T07:03:42.776Z,40.35
2022-12-20T07:06:09.755Z,36.78
2022-12-20T07:08:42.701Z,40.47
2022-12-20T07:11:09.661Z,36.67
2022-12-20T07:13:42.748Z,36.17
2022-12-20T07:16:16.771Z,33.95
2022-12-20T07:18:43.715Z,33.40
2022-12-20T07:21:10.623Z,45.63
2022-12-20T07:23:43.701Z,45.10
2022-12-20T07:26:10.627Z,49.28
2022-12-20T07:28:43.745Z,41.60
2022-12-20T07:31:10.786Z,44.35
2022-12-20T07:33:44.744Z,39.65
2022-12-20T07:36:12.668Z,46.78
2022-12-20T07:38:39.914Z,41.13
2022-12-20T07:41:15.767Z,38.85
2022-12-20T07:43:49.705Z,41.08
2022-12-20T07:46:16.931Z,42.28
2022-12-20T07:48:50.747Z,38.88
2022-12-20T07:51:29.727Z,41.55
2022-12-20T07:54:12.483Z,36.53
2022-12-20T07:56:49.810Z,37.85
2022-12-20T07:59:21.144Z,41.60
2022-12-20T08:01:59.284Z,35.67
2022-12-20T08:04:29.385Z,33.83
2022-12-20T08:07:02.721Z,32.47
2022-12-20T08:09:31.890Z,35.63
2022-12-20T08:12:05.702Z,35.00
2022-12-20T08:14:32.665Z,34.22
2022-12-20T08:17:05.890Z,35.72
2022-12-20T08:19:33.176Z,38.60
2022-12-20T08:22:06.813Z,32.35
2022-12-20T08:24:34.031Z,31.15
2022-12-20T08:27:08.017Z,30.55
2022-12-20T08:29:35.077Z,28.00
2022-12-20T08:32:02.025Z,28.95
2022-12-20T08:34:35.801Z,32.78
2022-12-20T08:37:06.554Z,28.05
2022-12-20T08:39:43.860Z,32.80
2022-12-20T08:42:17.809Z,32.05
2022-12-20T08:44:51.764Z,27.52
2022-12-20T08:47:24.918Z,26.08
2022-12-20T08:49:51.941Z,28.90
2022-12-20T08:52:19.029Z,28.13
2022-12-20T08:54:52.881Z,27.25
2022-12-20T08:57:26.839Z,23.48
2022-12-20T09:00:00.874Z,27.15
2022-12-20T09:02:28.015Z,26.23
2022-12-20T09:05:01.809Z,31.10
2022-12-20T09:07:29.227Z,34.90
2022-12-20T09:09:56.346Z,29.77
2022-12-20T09:12:29.855Z,28.55
2022-12-20T09:14:56.793Z,30.40
2022-12-20T09:17:29.784Z,28.58
2022-12-20T09:19:56.783Z,26.10
2022-12-20T09:22:29.800Z,28.20
2022-12-20T09:24:56.806Z,55.40
2022-12-20T09:27:29.827Z,54.13
2022-12-20T09:29:56.756Z,38.33
2022-12-20T09:32:29.779Z,30.67
2022-12-20T09:34:56.682Z,31.73
2022-12-20T09:37:32.580Z,32.88
2022-12-20T09:39:59.514Z,36.42
2022-12-20T09:42:33.789Z,57.50
2022-12-20T09:45:08.576Z,49.10
2022-12-20T09:47:42.745Z,95.68
2022-12-20T09:50:15.790Z,83.80
2022-12-20T09:53:06.809Z,54.67
2022-12-20T09:55:49.838Z,42.10
2022-12-20T09:58:30.196Z,44.90
2022-12-20T10:01:03.815Z,42.75
2022-12-20T10:03:37.570Z,79.57
2022-12-20T10:06:34.814Z,52.65
2022-12-20T10:09:10.902Z,38.35
2022-12-20T10:12:01.795Z,37.53
2022-12-20T10:14:59.804Z,33.22
2022-12-20T10:18:04.842Z,39.58
2022-12-20T10:20:43.823Z,33.67
2022-12-20T10:23:37.834Z,35.83
2022-12-20T10:26:15.765Z,36.22
2022-12-20T10:28:42.705Z,35.03
2022-12-20T10:31:21.991Z,36.33
2022-12-20T10:33:49.121Z,37.35
2022-12-20T10:36:36.847Z,37.45
2022-12-20T10:39:13.853Z,37.10
2022-12-20T10:41:40.812Z,38.03
2022-12-20T10:44:34.842Z,55.92
2022-12-20T10:47:08.888Z,68.93
2022-12-20T10:49:37.875Z,38.90
2022-12-20T10:52:19.890Z,32.70
2022-12-20T10:54:46.991Z,32.90
2022-12-20T10:57:31.920Z,31.65
2022-12-20T11:00:01.296Z,32.95
2022-12-20T11:02:42.749Z,31.35
2022-12-20T11:05:10.062Z,30.58
2022-12-20T11:10:46.665Z,35.17
2022-12-20T11:13:32.867Z,35.63
2022-12-20T11:15:59.856Z,37.92
2022-12-20T11:18:51.836Z,36.03
2022-12-20T11:21:41.900Z,37.95
2022-12-20T11:24:24.811Z,37.67
2022-12-20T11:27:11.989Z,41.35
2022-12-20T11:30:19.964Z,42.30
2022-12-20T11:33:05.231Z,36.90
2022-12-20T11:36:01.869Z,36.15
2022-12-20T11:38:39.793Z,30.55
2022-12-20T11:41:32.838Z,37.00
2022-12-20T11:44:45.693Z,32.22
2022-12-20T11:47:49.868Z,40.08
2022-12-20T11:50:41.876Z,38.78
2022-12-20T11:54:03.320Z,38.30
2022-12-20T11:56:45.250Z,33.63
2022-12-20T11:59:35.337Z,39.53
2022-12-20T12:02:20.934Z,35.47
2022-12-20T12:05:30.108Z,37.95
2022-12-20T12:08:13.487Z,33.60
2022-12-20T12:10:58.953Z,30.98
2022-12-20T12:13:34.884Z,31.80
2022-12-20T12:16:17.637Z,27.25
2022-12-20T12:18:50.855Z,28.67
2022-12-20T12:21:35.406Z,31.52
2022-12-20T12:24:35.878Z,28.13
2022-12-20T12:27:02.899Z,29.63
2022-12-20T12:29:36.810Z,27.88
2022-12-20T12:32:48.735Z,29.90
2022-12-20T12:36:07.831Z,23.80
2022-12-20T12:39:18.862Z,26.10
2022-12-20T12:42:05.896Z,22.77
2022-12-20T12:44:56.753Z,21.60
2022-12-20T12:47:42.827Z,21.85
2022-12-20T12:50:26.437Z,22.23
2022-12-20T12:53:01.894Z,22.05
2022-12-20T12:55:42.866Z,29.35
2022-12-20T12:58:31.905Z,27.40
2022-12-20T13:01:05.513Z,22.52
2022-12-20T13:03:58.905Z,20.25
2022-12-20T13:06:25.803Z,22.50
2022-12-20T13:08:58.820Z,21.70
2022-12-20T13:11:48.501Z,20.13
2022-12-20T13:14:23.028Z,20.33
2022-12-20T13:17:16.186Z,21.17
2022-12-20T13:19:57.065Z,19.92
2022-12-20T13:22:30.912Z,20.08
2022-12-20T13:25:04.472Z,19.92
2022-12-20T13:27:46.862Z,22.50
2022-12-20T13:30:13.806Z,20.80
2022-12-20T13:33:04.944Z,20.65
2022-12-20T13:35:44.345Z,23.20
2022-12-20T13:38:51.991Z,21.00
2022-12-20T13:41:42.556Z,21.92
2022-12-20T13:44:21.893Z,23.10
2022-12-20T13:47:02.909Z,24.50
2022-12-20T13:49:46.853Z,24.08
2022-12-20T13:52:30.028Z,26.88
2022-12-20T13:55:09.927Z,21.13
2022-12-20T13:57:42.754Z,28.40
2022-12-20T14:00:33.998Z,27.15
2022-12-20T14:03:01.402Z,23.55
2022-12-20T14:05:43.903Z,24.60
2022-12-20T14:08:20.725Z,26.70
2022-12-20T14:10:53.974Z,24.13
2022-12-20T14:13:23.981Z,23.58
2022-12-20T14:15:57.905Z,23.40
2022-12-20T14:18:25.902Z,25.30
2022-12-20T14:21:05.025Z,26.73
2022-12-20T14:23:48.926Z,24.48
2022-12-20T14:26:28.913Z,23.17
2022-12-20T14:29:00.212Z,23.83
2022-12-20T14:31:36.986Z,25.25
2022-12-20T14:34:17.918Z,28.40
2022-12-20T14:36:49.542Z,32.10
2022-12-20T14:39:39.952Z,28.48
2022-12-20T14:42:09.918Z,28.38
2022-12-20T14:44:36.869Z,29.88
2022-12-20T14:47:27.907Z,26.92
2022-12-20T14:49:58.924Z,30.05
2022-12-20T14:52:44.892Z,33.15
2022-12-20T14:55:23.419Z,34.17
2022-12-20T14:58:01.996Z,40.53
2022-12-20T15:00:33.750Z,32.80
2022-12-20T15:03:23.167Z,33.42
2022-12-20T15:05:54.980Z,29.48
2022-12-20T15:08:36.875Z,30.95
2022-12-20T15:11:09.788Z,29.58
2022-12-20T15:13:47.897Z,40.50
2022-12-20T15:16:19.656Z,39.20
2022-12-20T15:18:53.996Z,35.40
2022-12-20T15:21:40.988Z,33.03
2022-12-20T15:24:24.967Z,35.25
2022-12-20T15:26:52.068Z,34.22
2022-12-20T15:29:21.592Z,35.50
2022-12-20T15:31:55.308Z,36.03
2022-12-20T15:34:40.970Z,33.47
2022-12-20T15:37:19.015Z,36.38
2022-12-20T15:39:46.260Z,36.97
2022-12-20T15:42:23.913Z,35.20
2022-12-20T15:44:50.833Z,39.17
2022-12-20T15:47:17.775Z,37.05
2022-12-20T15:49:50.970Z,41.08
2022-12-20T15:52:23.093Z,41.28
2022-12-20T15:54:56.975Z,49.47
2022-12-20T15:57:30.594Z,47.33
2022-12-20T16:00:04.458Z,47.05
2022-12-20T16:02:52.211Z,53.28
2022-12-20T16:05:25.896Z,56.22
2022-12-20T16:07:52.820Z,55.33
2022-12-20T16:10:25.967Z,57.58
2022-12-20T16:12:52.945Z,57.70
2022-12-20T16:15:27.984Z,51.45
2022-12-20T16:17:54.939Z,48.00
2022-12-20T16:20:21.878Z,45.88
2022-12-20T16:22:54.944Z,43.15
2022-12-20T16:25:32.137Z,43.80
2022-12-20T16:28:06.003Z,45.90
2022-12-20T16:30:33.376Z,41.67
2022-12-20T16:33:07.197Z,48.75
2022-12-20T16:35:44.246Z,47.58
2022-12-20T16:38:12.655Z,44.65
2022-12-20T16:40:46.335Z,40.85
2022-12-20T16:43:14.847Z,39.55
2022-12-20T16:45:48.162Z,37.65
2022-12-20T16:48:17.025Z,38.35
2022-12-20T16:50:51.152Z,51.58
2022-12-20T16:53:18.132Z,76.30
2022-12-20T16:55:51.997Z,97.60
2022-12-20T16:58:19.041Z,82.18
2022-12-20T17:00:52.027Z,82.60
2022-12-20T17:03:25.010Z,71.95
2022-12-20T17:05:51.970Z,56.20
2022-12-20T17:11:20.271Z,50.92
2022-12-20T17:13:55.135Z,44.70
2022-12-20T17:16:22.843Z,41.63
2022-12-20T17:18:58.039Z,41.05
2022-12-20T17:24:37.989Z,40.80
2022-12-20T17:27:05.142Z,44.70
2022-12-20T17:29:39.077Z,38.58
2022-12-20T17:32:24.574Z,39.55
2022-12-20T17:34:58.983Z,41.45
2022-12-20T17:37:25.959Z,41.22
2022-12-20T17:40:00.102Z,46.33
2022-12-20T17:42:33.994Z,41.78
2022-12-20T17:45:00.953Z,43.28
2022-12-20T17:47:34.021Z,38.40
2022-12-20T17:50:00.905Z,43.75
2022-12-20T17:52:34.027Z,47.40
2022-12-20T17:55:00.940Z,46.05
2022-12-20T17:57:33.978Z,43.92
2022-12-20T18:00:00.916Z,38.67
2022-12-20T18:02:34.106Z,40.42
2022-12-20T18:05:01.183Z,36.20
2022-12-20T18:07:39.980Z,34.92
2022-12-20T18:10:08.068Z,35.30
2022-12-20T18:12:42.038Z,33.53
2022-12-20T18:15:09.465Z,29.77
2022-12-20T18:17:42.969Z,32.72
2022-12-20T18:20:10.563Z,32.15
2022-12-20T18:22:43.976Z,29.67
2022-12-20T18:25:11.030Z,27.33
2022-12-20T18:27:51.545Z,32.08
2022-12-20T18:30:18.545Z,34.90
2022-12-20T18:32:52.077Z,34.65
2022-12-20T18:35:18.961Z,34.97
2022-12-20T18:37:52.010Z,33.60
2022-12-20T18:40:19.081Z,33.50
2022-12-20T18:42:51.991Z,36.58
2022-12-20T18:45:18.897Z,38.53
2022-12-20T18:47:52.038Z,36.42
2022-12-20T18:50:18.971Z,45.13
2022-12-20T18:52:55.391Z,44.83
2022-12-20T18:55:24.806Z,40.85
2022-12-20T18:57:58.042Z,34.90
2022-12-20T19:00:25.035Z,41.03
2022-12-20T19:02:58.107Z,42.95
2022-12-20T19:05:26.163Z,45.30
2022-12-20T19:08:00.035Z,44.60
2022-12-20T19:10:37.081Z,44.40
2022-12-20T19:13:06.153Z,35.78
2022-12-20T19:15:33.263Z,36.25
2022-12-20T19:18:07.025Z,40.47
2022-12-20T19:20:37.352Z,33.00
2022-12-20T19:23:04.298Z,33.50
2022-12-20T19:25:42.015Z,36.63
2022-12-20T19:28:08.958Z,39.67
2022-12-20T19:30:35.961Z,40.83
2022-12-20T19:33:09.040Z,44.50
2022-12-20T19:38:29.042Z,39.47
2022-12-20T19:41:02.028Z,40.58
2022-12-20T19:43:29.364Z,41.15
2022-12-20T19:45:59.437Z,41.53
2022-12-20T19:48:33.030Z,43.63
2022-12-20T19:51:04.768Z,41.92
2022-12-20T19:53:31.991Z,39.10
2022-12-20T19:56:05.081Z,39.67
2022-12-20T19:58:32.074Z,40.25
2022-12-20T20:00:59.060Z,39.92
2022-12-20T20:03:32.087Z,44.00
2022-12-20T20:05:59.195Z,40.28
2022-12-20T20:08:33.043Z,40.50
2022-12-20T20:11:09.748Z,42.33
2022-12-20T20:13:37.751Z,37.00
2022-12-20T20:16:15.475Z,41.72
2022-12-20T20:18:47.078Z,41.50
2022-12-20T20:21:22.110Z,42.22
2022-12-20T20:23:50.615Z,37.90
2022-12-20T20:26:27.072Z,39.90
2022-12-20T20:28:53.994Z,38.70
2022-12-20T20:31:28.094Z,38.50
2022-12-20T20:33:55.160Z,34.08
2022-12-20T20:36:29.101Z,36.38
2022-12-20T20:38:56.106Z,33.10
2022-12-20T20:41:30.126Z,34.55
2022-12-20T20:43:57.163Z,34.08
2022-12-20T20:46:24.144Z,31.20
2022-12-20T20:48:58.083Z,34.58
2022-12-20T20:51:24.950Z,34.97
2022-12-20T20:53:58.071Z,33.65
2022-12-20T20:56:24.961Z,30.40
2022-12-20T20:59:04.963Z,30.27
2022-12-20T21:01:34.123Z,38.50
2022-12-20T21:04:08.069Z,32.88
2022-12-20T21:06:40.343Z,33.33
2022-12-20T21:09:15.099Z,34.03
2022-12-20T21:11:42.060Z,29.23
2022-12-20T21:14:16.117Z,28.55
2022-12-20T21:16:43.157Z,36.20
2022-12-20T21:19:10.119Z,32.30
2022-12-20T21:21:43.140Z,37.53
2022-12-20T21:24:10.037Z,36.15
2022-12-20T21:26:43.051Z,62.25
2022-12-20T21:29:10.186Z,62.30
2022-12-20T21:31:44.196Z,70.50
2022-12-20T21:34:18.140Z,58.10
2022-12-20T21:36:51.130Z,41.25
2022-12-20T21:39:18.255Z,40.92
2022-12-20T21:41:45.161Z,53.85
2022-12-20T21:44:19.086Z,49.10
2022-12-20T21:46:46.127Z,46.53
2022-12-20T21:49:20.153Z,35.58
2022-12-20T21:51:47.109Z,32.28
2022-12-20T21:54:20.068Z,33.42
2022-12-20T21:56:53.776Z,29.27
2022-12-20T21:59:27.115Z,31.27
2022-12-20T22:01:54.379Z,30.05
2022-12-20T22:04:28.118Z,36.20
2022-12-20T22:06:55.115Z,31.40
2022-12-20T22:09:28.104Z,31.08
2022-12-20T22:11:55.027Z,34.33
2022-12-20T22:14:28.149Z,35.80
2022-12-20T22:17:01.061Z,33.83
2022-12-20T22:19:28.012Z,31.35
2022-12-20T22:22:01.149Z,31.52
2022-12-20T22:24:28.064Z,30.50
2022-12-20T22:27:03.801Z,29.88
2022-12-20T22:29:34.715Z,30.42
2022-12-20T22:32:08.208Z,33.00
2022-12-20T22:34:35.197Z,30.98
2022-12-20T22:37:09.130Z,30.98
2022-12-20T22:39:36.041Z,33.25
2022-12-20T22:42:02.978Z,32.75
2022-12-20T22:44:36.118Z,33.95
2022-12-20T22:47:03.086Z,29.27
2022-12-20T22:49:36.103Z,31.08
2022-12-20T22:52:10.168Z,30.58
2022-12-20T22:54:37.131Z,31.52
2022-12-20T22:57:10.107Z,32.95
2022-12-20T22:59:43.113Z,36.53
2022-12-20T23:02:10.142Z,76.93
2022-12-20T23:04:43.162Z,52.40
2022-12-20T23:07:10.397Z,40.75
2022-12-20T23:09:44.120Z,38.60
2022-12-20T23:12:11.296Z,40.25
2022-12-20T23:14:45.195Z,42.50
2022-12-20T23:17:18.135Z,108.35
2022-12-20T23:19:45.166Z,104.43
2022-12-20T23:22:18.146Z,55.72
2022-12-20T23:24:46.460Z,39.10
2022-12-20T23:27:20.103Z,49.58
2022-12-20T23:29:47.040Z,48.08
2022-12-20T23:32:20.121Z,44.90
2022-12-20T23:34:47.028Z,38.45
2022-12-20T23:37:20.278Z,32.90
2022-12-20T23:39:47.180Z,34.72
2022-12-20T23:42:57.563Z,38.72
2022-12-20T23:45:24.519Z,35.00
2022-12-20T23:47:58.152Z,40.60
2022-12-20T23:50:25.115Z,37.40
2022-12-20T23:52:58.134Z,32.85
2022-12-20T23:55:27.151Z,33.08
2022-12-20T23:58:00.133Z,32.67
